sensor_id;sensor_type;location;lat;lon;timestamp;temperature;humidity
15409;DHT22;7803;48.130;13.788;2023-07-24T07:34:21;24.50;96.00
15409;DHT22;7803;48.130;13.788;2023-07-24T07:41:37;24.50;95.10
15409;DHT22;7803;48.130;13.788;2023-07-24T07:48:53;24.50;95.20
15409;DHT22;7803;48.130;13.788;2023-07-24T08:41:30;24.70;95.00
15409;DHT22;7803;48.130;13.788;2023-07-24T08:44:39;24.70;95.00
15409;DHT22;7803;48.130;13.788;2023-07-24T08:47:55;24.70;95.00
15409;DHT22;7803;48.130;13.788;2023-07-24T08:51:14;24.70;95.00
15409;DHT22;7803;48.130;13.788;2023-07-24T08:54:30;24.70;94.90
15409;DHT22;7803;48.130;13.788;2023-07-24T15:48:28;25.30;95.40
15409;DHT22;7803;48.130;13.788;2023-07-24T15:51:30;25.30;95.70
15409;DHT22;7803;48.130;13.788;2023-07-24T15:54:33;25.30;96.30
15409;DHT22;7803;48.130;13.788;2023-07-24T15:57:35;25.30;96.50
15409;DHT22;7803;48.130;13.788;2023-07-24T16:00:37;25.30;96.80
15409;DHT22;7803;48.130;13.788;2023-07-24T16:03:42;25.30;96.60
15409;DHT22;7803;48.130;13.788;2023-07-24T16:06:44;25.30;96.70
15409;DHT22;7803;48.130;13.788;2023-07-24T16:09:47;25.30;96.50
15409;DHT22;7803;48.130;13.788;2023-07-24T16:12:49;25.30;96.80
15409;DHT22;7803;48.130;13.788;2023-07-24T16:15:52;25.30;96.80
15409;DHT22;7803;48.130;13.788;2023-07-24T16:19:13;25.30;96.90
15409;DHT22;7803;48.130;13.788;2023-07-24T16:22:15;25.30;97.10
15409;DHT22;7803;48.130;13.788;2023-07-24T16:25:18;25.40;97.40
15409;DHT22;7803;48.130;13.788;2023-07-24T16:28:22;25.30;97.60
15409;DHT22;7803;48.130;13.788;2023-07-24T16:31:24;25.40;97.60
15409;DHT22;7803;48.130;13.788;2023-07-24T16:34:28;25.30;97.50
15409;DHT22;7803;48.130;13.788;2023-07-24T16:37:32;25.40;97.60
15409;DHT22;7803;48.130;13.788;2023-07-24T16:40:35;25.40;97.60
15409;DHT22;7803;48.130;13.788;2023-07-24T16:43:38;25.30;97.60
15409;DHT22;7803;48.130;13.788;2023-07-24T16:46:41;25.40;97.80
15409;DHT22;7803;48.130;13.788;2023-07-24T22:51:53;25.20;99.90
15409;DHT22;7803;48.130;13.788;2023-07-24T22:54:56;25.20;99.90
15409;DHT22;7803;48.130;13.788;2023-07-24T22:57:58;25.20;99.90
15409;DHT22;7803;48.130;13.788;2023-07-24T23:01:01;25.20;99.90
15409;DHT22;7803;48.130;13.788;2023-07-24T23:04:03;25.20;99.90
15409;DHT22;7803;48.130;13.788;2023-07-24T23:07:06;25.20;99.90
15409;DHT22;7803;48.130;13.788;2023-07-24T23:10:09;25.20;99.90
15409;DHT22;7803;48.130;13.788;2023-07-24T23:13:12;25.20;99.90
15409;DHT22;7803;48.130;13.788;2023-07-24T23:16:14;25.20;99.90
15409;DHT22;7803;48.130;13.788;2023-07-24T23:19:16;25.10;99.90
15409;DHT22;7803;48.130;13.788;2023-07-24T23:22:27;25.10;99.90
15409;DHT22;7803;48.130;13.788;2023-07-24T23:25:29;25.10;99.90
15409;DHT22;7803;48.130;13.788;2023-07-24T23:28:31;25.20;99.90
15409;DHT22;7803;48.130;13.788;2023-07-24T23:31:33;25.20;99.90
15409;DHT22;7803;48.130;13.788;2023-07-24T23:34:35;25.10;99.90
